createdAt,value
2023-02-11T00:01:37.702Z,31.02
2023-02-11T00:04:05.072Z,30.23
2023-02-11T00:06:32.248Z,28.60
2023-02-11T00:08:58.835Z,28.08
2023-02-11T00:11:26.530Z,31.65
2023-02-11T00:13:53.063Z,31.25
2023-02-11T00:16:20.338Z,35.15
2023-02-11T00:18:46.986Z,30.88
2023-02-11T00:21:15.241Z,31.50
2023-02-11T00:23:41.942Z,31.88
2023-02-11T00:26:24.468Z,31.90
2023-02-11T00:28:51.093Z,31.85
2023-02-11T00:31:18.498Z,30.75
2023-02-11T00:33:45.714Z,35.08
2023-02-11T00:36:17.462Z,32.33
2023-02-11T00:38:44.543Z,30.63
2023-02-11T00:41:11.741Z,31.70
2023-02-11T00:43:38.221Z,36.03
2023-02-11T00:46:04.832Z,34.20
2023-02-11T00:48:31.408Z,35.45
2023-02-11T00:50:58.281Z,32.63
2023-02-11T00:53:25.085Z,31.83
2023-02-11T00:55:51.906Z,33.53
2023-02-11T00:58:18.580Z,33.22
2023-02-11T01:00:45.060Z,37.55
2023-02-11T01:03:11.601Z,35.90
2023-02-11T01:05:38.188Z,38.10
2023-02-11T01:08:05.078Z,33.53
2023-02-11T01:10:31.744Z,34.42
2023-02-11T01:12:58.272Z,34.05
2023-02-11T01:15:24.782Z,30.88
2023-02-11T01:17:51.394Z,32.70
2023-02-11T01:20:21.432Z,31.33
2023-02-11T01:22:48.003Z,31.98
2023-02-11T01:25:14.577Z,32.08
2023-02-11T01:27:41.125Z,32.80
2023-02-11T01:30:08.611Z,34.90
2023-02-11T01:32:35.219Z,35.15
2023-02-11T01:35:01.727Z,37.35
2023-02-11T01:37:28.302Z,36.47
2023-02-11T01:39:55.006Z,40.08
2023-02-11T01:42:23.265Z,38.80
2023-02-11T01:44:51.416Z,40.30
2023-02-11T01:47:18.951Z,36.80
2023-02-11T01:49:47.703Z,33.22
2023-02-11T01:52:30.743Z,33.55
2023-02-11T01:57:48.017Z,32.65
2023-02-11T02:00:14.651Z,33.22
2023-02-11T02:02:46.481Z,34.97
2023-02-11T02:05:34.311Z,37.13
2023-02-11T02:08:11.741Z,32.95
2023-02-11T02:10:38.494Z,34.50
2023-02-11T02:13:04.970Z,34.10
2023-02-11T02:15:35.386Z,37.63
2023-02-11T02:18:03.217Z,36.92
2023-02-11T02:20:56.634Z,36.20
2023-02-11T02:23:25.783Z,35.25
2023-02-11T02:26:10.977Z,29.90
2023-02-11T02:29:02.741Z,31.08
2023-02-11T02:31:41.367Z,31.02
2023-02-11T02:34:15.959Z,35.53
2023-02-11T02:37:01.919Z,35.78
2023-02-11T02:39:31.068Z,29.92
2023-02-11T02:41:57.590Z,32.92
2023-02-11T02:44:24.073Z,32.45
2023-02-11T02:46:50.725Z,31.58
2023-02-11T02:49:17.293Z,33.08
2023-02-11T02:52:21.465Z,32.78
2023-02-11T02:55:06.450Z,30.02
2023-02-11T02:57:45.888Z,27.67
2023-02-11T03:00:37.578Z,31.83
2023-02-11T03:03:27.438Z,32.15
2023-02-11T03:06:08.849Z,28.60
2023-02-11T03:08:42.383Z,27.83
2023-02-11T03:11:09.704Z,29.65
2023-02-11T03:13:36.707Z,29.13
2023-02-11T03:16:09.836Z,30.55
2023-02-11T03:18:36.856Z,31.20
2023-02-11T03:21:03.447Z,30.90
2023-02-11T03:23:35.860Z,31.88
2023-02-11T03:26:14.855Z,33.38
2023-02-11T03:29:08.386Z,34.45
2023-02-11T03:31:50.979Z,32.38
2023-02-11T03:34:38.351Z,33.50
2023-02-11T03:37:32.784Z,35.47
2023-02-11T03:40:08.450Z,35.28
2023-02-11T03:42:46.512Z,34.47
2023-02-11T03:45:15.582Z,36.30
2023-02-11T03:47:45.684Z,35.45
2023-02-11T03:50:12.592Z,34.45
2023-02-11T03:52:39.220Z,34.55
2023-02-11T03:55:11.238Z,33.90
2023-02-11T03:57:37.963Z,36.03
2023-02-11T04:00:05.091Z,34.45
2023-02-11T04:02:33.687Z,37.00
2023-02-11T04:05:00.408Z,36.80
2023-02-11T04:07:27.071Z,32.97
2023-02-11T04:09:53.625Z,34.17
2023-02-11T04:12:20.140Z,37.20
2023-02-11T04:14:46.707Z,34.45
2023-02-11T04:17:13.219Z,34.28
2023-02-11T04:19:39.781Z,35.47
2023-02-11T04:22:06.395Z,37.03
2023-02-11T04:24:32.856Z,35.35
2023-02-11T04:26:59.334Z,34.63
2023-02-11T04:29:25.897Z,34.88
2023-02-11T04:31:52.422Z,33.47
2023-02-11T04:34:18.921Z,31.50
2023-02-11T04:36:45.609Z,34.42
2023-02-11T04:39:12.094Z,32.45
2023-02-11T04:41:38.576Z,34.33
2023-02-11T04:44:05.301Z,32.45
2023-02-11T04:46:31.859Z,33.35
2023-02-11T04:48:58.384Z,34.47
2023-02-11T04:51:24.946Z,35.88
2023-02-11T04:53:51.458Z,34.83
2023-02-11T04:56:17.962Z,34.67
2023-02-11T04:58:44.484Z,33.72
2023-02-11T05:01:12.798Z,34.53
2023-02-11T05:03:39.318Z,34.85
2023-02-11T05:06:06.257Z,33.92
2023-02-11T05:08:32.934Z,34.90
2023-02-11T05:10:59.518Z,35.83
2023-02-11T05:13:26.075Z,34.30
2023-02-11T05:15:52.909Z,34.05
2023-02-11T05:18:19.557Z,34.58
2023-02-11T05:20:46.096Z,38.15
2023-02-11T05:23:12.601Z,34.10
2023-02-11T05:25:39.133Z,33.70
2023-02-11T05:28:05.954Z,34.53
2023-02-11T05:30:32.565Z,33.65
2023-02-11T05:32:59.050Z,30.27
2023-02-11T05:35:25.559Z,33.97
2023-02-11T05:37:52.118Z,33.30
2023-02-11T05:40:18.595Z,36.00
2023-02-11T05:42:45.132Z,34.05
2023-02-11T05:45:11.685Z,30.67
2023-02-11T05:47:38.152Z,31.83
2023-02-11T05:50:04.754Z,32.17
2023-02-11T05:52:31.232Z,32.67
2023-02-11T05:54:57.932Z,33.35
2023-02-11T05:57:24.478Z,33.65
2023-02-11T05:59:50.936Z,33.88
2023-02-11T06:02:17.433Z,32.85
2023-02-11T06:04:44.383Z,31.42
2023-02-11T06:07:10.863Z,32.13
2023-02-11T06:09:37.741Z,31.23
2023-02-11T06:12:04.486Z,31.58
2023-02-11T06:14:33.547Z,31.02
2023-02-11T06:17:00.302Z,30.02
2023-02-11T06:19:26.999Z,31.00
2023-02-11T06:21:53.530Z,27.55
2023-02-11T06:24:38.413Z,31.40
2023-02-11T06:27:06.526Z,31.90
2023-02-11T06:29:33.076Z,31.98
2023-02-11T06:31:59.641Z,27.73
2023-02-11T06:34:26.179Z,31.13
2023-02-11T06:36:52.643Z,30.48
2023-02-11T06:39:19.208Z,31.52
2023-02-11T06:41:45.742Z,29.73
2023-02-11T06:44:12.263Z,29.63
2023-02-11T06:46:38.793Z,30.75
2023-02-11T06:49:05.375Z,28.85
2023-02-11T06:51:31.872Z,31.00
2023-02-11T06:53:58.411Z,31.40
2023-02-11T06:56:27.369Z,29.52
2023-02-11T06:58:55.397Z,32.28
2023-02-11T07:01:22.374Z,30.33
2023-02-11T07:03:48.906Z,30.80
2023-02-11T07:06:17.098Z,30.00
2023-02-11T07:08:45.804Z,29.25
2023-02-11T07:11:13.931Z,30.40
2023-02-11T07:13:40.448Z,30.63
2023-02-11T07:16:07.623Z,27.95
2023-02-11T07:18:34.162Z,30.13
2023-02-11T07:21:04.069Z,30.08
2023-02-11T07:23:30.535Z,28.27
2023-02-11T07:25:57.133Z,20.27
2023-02-11T07:28:23.642Z,29.33
2023-02-11T07:30:50.177Z,29.88
2023-02-11T07:33:16.738Z,30.02
2023-02-11T07:35:43.252Z,29.05
2023-02-11T07:38:09.814Z,30.08
2023-02-11T07:40:36.626Z,31.73
2023-02-11T07:43:03.168Z,30.30
2023-02-11T07:45:29.677Z,29.48
2023-02-11T07:47:56.201Z,26.50
2023-02-11T07:50:22.701Z,27.63
2023-02-11T07:52:49.212Z,28.83
2023-02-11T07:55:15.768Z,31.23
2023-02-11T07:57:42.314Z,29.50
2023-02-11T08:00:09.357Z,29.85
2023-02-11T08:02:35.905Z,28.10
2023-02-11T08:05:02.474Z,28.48
2023-02-11T08:07:29.659Z,29.05
2023-02-11T08:09:56.263Z,27.10
2023-02-11T08:12:22.793Z,24.50
2023-02-11T08:14:49.275Z,26.42
2023-02-11T08:17:15.807Z,24.52
2023-02-11T08:19:42.454Z,26.23
2023-02-11T08:22:08.919Z,26.73
2023-02-11T08:24:35.489Z,26.88
2023-02-11T08:27:02.004Z,26.77
2023-02-11T08:29:28.498Z,26.38
2023-02-11T08:31:55.231Z,25.63
2023-02-11T08:34:21.988Z,25.38
2023-02-11T08:36:48.654Z,24.73
2023-02-11T08:39:20.768Z,25.45
2023-02-11T08:41:52.353Z,26.27
2023-02-11T08:44:19.560Z,24.52
2023-02-11T08:46:46.338Z,26.30
2023-02-11T08:49:12.862Z,24.88
2023-02-11T08:51:39.388Z,25.63
2023-02-11T08:54:09.455Z,26.02
2023-02-11T08:56:36.809Z,24.92
2023-02-11T08:59:03.384Z,24.17
2023-02-11T09:01:30.630Z,24.48
2023-02-11T09:03:57.978Z,23.85
2023-02-11T09:06:25.005Z,22.92
2023-02-11T09:08:53.058Z,23.50
2023-02-11T09:11:21.210Z,24.30
2023-02-11T09:13:47.925Z,21.92
2023-02-11T09:16:22.486Z,22.85
2023-02-11T09:18:49.254Z,21.65
2023-02-11T09:21:16.154Z,26.15
2023-02-11T09:23:44.679Z,25.08
2023-02-11T09:26:20.165Z,24.70
2023-02-11T09:28:47.069Z,20.80
2023-02-11T09:31:15.558Z,21.80
2023-02-11T09:33:48.146Z,23.55
2023-02-11T09:36:19.489Z,22.48
2023-02-11T09:38:46.266Z,25.55
2023-02-11T09:41:40.877Z,23.52
2023-02-11T09:44:09.578Z,25.13
2023-02-11T09:46:37.950Z,25.02
2023-02-11T09:49:04.971Z,27.20
2023-02-11T09:51:40.466Z,23.35
2023-02-11T09:54:34.672Z,25.20
2023-02-11T09:57:01.274Z,25.15
2023-02-11T09:59:27.755Z,24.55
2023-02-11T10:02:04.777Z,23.20
2023-02-11T10:04:45.540Z,24.17
2023-02-11T10:07:25.300Z,23.85
2023-02-11T10:10:15.416Z,23.13
2023-02-11T10:12:52.993Z,24.50
2023-02-11T10:15:44.567Z,24.13
2023-02-11T10:18:48.565Z,24.45
2023-02-11T10:21:15.014Z,24.35
2023-02-11T10:23:43.411Z,23.15
2023-02-11T10:26:15.059Z,18.70
2023-02-11T10:28:43.851Z,24.55
2023-02-11T10:31:16.198Z,20.80
2023-02-11T10:33:44.151Z,20.77
2023-02-11T10:36:14.217Z,25.10
2023-02-11T10:38:40.783Z,22.08
2023-02-11T10:41:10.533Z,22.63
2023-02-11T10:43:37.023Z,25.13
2023-02-11T10:46:03.656Z,22.63
2023-02-11T10:48:51.375Z,25.25
2023-02-11T10:51:27.673Z,23.13
2023-02-11T10:54:21.111Z,22.92
2023-02-11T10:56:55.181Z,24.80
2023-02-11T10:59:28.341Z,23.67
2023-02-11T11:02:06.332Z,24.73
2023-02-11T11:04:45.325Z,23.52
2023-02-11T11:07:13.167Z,27.70
2023-02-11T11:10:00.313Z,24.65
2023-02-11T11:12:44.908Z,25.65
2023-02-11T11:15:11.305Z,24.48
2023-02-11T11:17:38.031Z,23.92
2023-02-11T11:20:27.546Z,24.10
2023-02-11T11:23:08.462Z,24.30
2023-02-11T11:25:34.953Z,25.08
2023-02-11T11:28:01.495Z,25.75
2023-02-11T11:30:33.235Z,25.50
2023-02-11T11:33:00.024Z,23.80
2023-02-11T11:35:30.329Z,22.58
2023-02-11T11:38:02.025Z,21.60
2023-02-11T11:40:33.081Z,24.30
2023-02-11T11:43:05.576Z,24.17
2023-02-11T11:45:32.050Z,23.60
2023-02-11T11:48:10.408Z,24.17
2023-02-11T11:50:48.916Z,20.05
2023-02-11T11:53:40.303Z,22.80
2023-02-11T11:56:16.151Z,23.13
2023-02-11T11:58:42.656Z,25.17
2023-02-11T12:01:28.006Z,21.70
2023-02-11T12:04:18.537Z,22.52
2023-02-11T12:07:00.983Z,23.40
2023-02-11T12:09:37.349Z,20.38
2023-02-11T12:12:16.827Z,22.65
2023-02-11T12:14:55.350Z,21.67
2023-02-11T12:17:38.985Z,23.42
2023-02-11T12:20:33.348Z,21.25
2023-02-11T12:23:27.160Z,19.55
2023-02-11T12:26:26.341Z,23.05
2023-02-11T12:29:11.354Z,22.80
2023-02-11T12:31:47.300Z,22.33
2023-02-11T12:34:32.073Z,21.38
2023-02-11T12:37:08.158Z,21.33
2023-02-11T12:39:45.452Z,22.58
2023-02-11T12:42:49.507Z,20.73
2023-02-11T12:45:42.796Z,20.90
2023-02-11T12:51:14.770Z,19.23
2023-02-11T12:53:47.377Z,21.35
2023-02-11T12:56:22.157Z,21.83
2023-02-11T12:58:48.969Z,21.13
2023-02-11T13:01:50.558Z,21.42
2023-02-11T13:04:37.090Z,20.02
2023-02-11T13:07:32.359Z,20.77
2023-02-11T13:10:02.671Z,20.95
2023-02-11T13:12:48.348Z,19.38
2023-02-11T13:15:15.039Z,20.75
2023-02-11T13:17:49.734Z,21.67
2023-02-11T13:20:37.023Z,21.17
2023-02-11T13:23:18.790Z,21.25
2023-02-11T13:26:10.989Z,21.10
2023-02-11T13:28:48.774Z,18.85
2023-02-11T13:31:16.834Z,21.20
2023-02-11T13:33:44.335Z,20.42
2023-02-11T13:36:13.055Z,20.65
2023-02-11T13:38:39.611Z,19.95
2023-02-11T13:41:17.135Z,19.20
2023-02-11T13:43:43.697Z,20.35
2023-02-11T13:46:13.779Z,18.90
2023-02-11T13:48:46.341Z,21.63
2023-02-11T13:51:14.985Z,22.30
2023-02-11T13:53:51.411Z,19.55
2023-02-11T13:56:32.659Z,20.98
2023-02-11T13:59:02.118Z,18.63
2023-02-11T14:02:06.973Z,20.25
2023-02-11T14:04:52.596Z,19.60
2023-02-11T14:07:48.457Z,20.25
2023-02-11T14:10:43.108Z,19.58
2023-02-11T14:13:33.053Z,20.70
2023-02-11T14:16:17.116Z,19.10
2023-02-11T14:18:51.874Z,23.27
2023-02-11T14:21:27.343Z,20.08
2023-02-11T14:23:55.939Z,28.85
2023-02-11T14:27:01.671Z,26.40
2023-02-11T14:29:46.180Z,27.58
2023-02-11T14:32:47.689Z,29.95
2023-02-11T14:35:36.512Z,28.08
2023-02-11T14:38:26.217Z,28.15
2023-02-11T14:41:05.680Z,28.25
2023-02-11T14:43:36.496Z,27.92
2023-02-11T14:46:03.167Z,28.48
2023-02-11T14:48:31.343Z,29.23
2023-02-11T14:51:00.667Z,29.80
2023-02-11T14:53:27.243Z,29.35
2023-02-11T14:55:54.341Z,29.08
2023-02-11T14:58:31.636Z,29.50
2023-02-11T15:00:59.213Z,30.52
2023-02-11T15:03:31.790Z,31.00
2023-02-11T15:06:19.815Z,29.48
2023-02-11T15:09:01.098Z,27.27
2023-02-11T15:11:32.241Z,26.38
2023-02-11T15:14:06.878Z,28.95
2023-02-11T15:16:33.376Z,29.92
2023-02-11T15:19:02.541Z,29.67
2023-02-11T15:21:30.221Z,30.55
2023-02-11T15:24:20.924Z,31.30
2023-02-11T15:27:21.048Z,30.35
2023-02-11T15:29:51.627Z,29.80
2023-02-11T15:32:18.956Z,30.45
2023-02-11T15:34:45.929Z,31.75
2023-02-11T15:37:14.503Z,31.70
2023-02-11T15:39:41.982Z,30.55
2023-02-11T15:42:27.643Z,29.48
2023-02-11T15:45:15.668Z,30.45
2023-02-11T15:47:47.204Z,33.08
2023-02-11T15:50:27.757Z,34.22
2023-02-11T15:52:54.988Z,32.03
2023-02-11T15:55:21.503Z,31.23
2023-02-11T15:57:52.498Z,30.13
2023-02-11T16:00:21.267Z,31.30
2023-02-11T16:02:48.664Z,32.13
2023-02-11T16:05:31.156Z,32.15
2023-02-11T16:07:58.016Z,33.75
2023-02-11T16:10:33.760Z,34.92
2023-02-11T16:13:17.358Z,31.85
2023-02-11T16:15:50.941Z,32.83
2023-02-11T16:18:40.006Z,31.60
2023-02-11T16:21:14.650Z,32.97
2023-02-11T16:23:44.112Z,31.13
2023-02-11T16:26:39.459Z,33.13
2023-02-11T16:29:14.409Z,28.80
2023-02-11T16:31:42.636Z,32.20
2023-02-11T16:34:16.336Z,30.55
2023-02-11T16:36:42.913Z,31.77
2023-02-11T16:39:09.782Z,31.30
2023-02-11T16:41:36.305Z,35.03
2023-02-11T16:44:02.947Z,34.03
2023-02-11T16:46:29.541Z,37.08
2023-02-11T16:48:56.223Z,40.92
2023-02-11T16:51:22.790Z,36.40
2023-02-11T16:53:49.294Z,35.97
2023-02-11T16:56:16.813Z,34.30
2023-02-11T16:58:44.447Z,35.15
2023-02-11T17:01:13.527Z,36.63
2023-02-11T17:03:40.583Z,38.88
2023-02-11T17:06:09.076Z,38.08
2023-02-11T17:08:35.793Z,39.55
2023-02-11T17:11:02.901Z,37.30
2023-02-11T17:13:29.454Z,38.22
2023-02-11T17:15:56.091Z,37.80
2023-02-11T17:18:22.664Z,38.67
2023-02-11T17:20:49.176Z,37.65
2023-02-11T17:23:15.720Z,37.78
2023-02-11T17:25:42.269Z,38.17
2023-02-11T17:28:09.000Z,38.58
2023-02-11T17:30:35.597Z,35.67
2023-02-11T17:33:02.065Z,39.40
2023-02-11T17:35:28.584Z,36.92
2023-02-11T17:37:55.125Z,39.17
2023-02-11T17:40:21.749Z,36.45
2023-02-11T17:42:48.464Z,37.92
2023-02-11T17:45:15.229Z,36.13
2023-02-11T17:47:41.760Z,35.08
2023-02-11T17:50:08.822Z,35.10
2023-02-11T17:52:36.566Z,39.92
2023-02-11T17:55:03.132Z,37.28
2023-02-11T17:57:29.772Z,38.25
2023-02-11T17:59:56.268Z,38.38
2023-02-11T18:02:22.795Z,39.20
2023-02-11T18:04:49.627Z,45.70
2023-02-11T18:07:16.213Z,37.53
2023-02-11T18:09:42.912Z,37.70
2023-02-11T18:12:10.656Z,34.88
2023-02-11T18:14:40.509Z,37.75
2023-02-11T18:17:07.233Z,36.97
2023-02-11T18:19:35.930Z,34.72
2023-02-11T18:22:04.218Z,35.33
2023-02-11T18:24:31.049Z,40.40
2023-02-11T18:26:57.652Z,42.85
2023-02-11T18:29:24.173Z,42.45
2023-02-11T18:31:50.852Z,40.90
2023-02-11T18:34:17.480Z,38.55
2023-02-11T18:36:44.386Z,37.95
2023-02-11T18:39:10.912Z,36.53
2023-02-11T18:41:40.084Z,36.22
2023-02-11T18:44:06.800Z,37.22
2023-02-11T18:46:33.525Z,36.42
2023-02-11T18:49:00.111Z,36.42
2023-02-11T18:51:26.654Z,36.95
2023-02-11T18:53:53.227Z,34.20
2023-02-11T18:56:21.781Z,38.53
2023-02-11T18:58:48.865Z,43.90
2023-02-11T19:01:20.929Z,42.30
2023-02-11T19:03:48.324Z,41.97
2023-02-11T19:06:19.904Z,40.90
2023-02-11T19:08:46.403Z,42.22
2023-02-11T19:11:13.273Z,40.20
2023-02-11T19:13:39.835Z,39.33
2023-02-11T19:16:11.360Z,41.28
2023-02-11T19:18:38.700Z,43.08
2023-02-11T19:21:09.290Z,39.67
2023-02-11T19:23:35.830Z,41.15
2023-02-11T19:26:04.523Z,38.42
2023-02-11T19:28:31.798Z,37.05
2023-02-11T19:30:58.365Z,36.83
2023-02-11T19:33:24.917Z,37.97
2023-02-11T19:35:51.666Z,41.60
2023-02-11T19:38:19.100Z,39.40
2023-02-11T19:40:45.599Z,38.42
2023-02-11T19:43:12.078Z,38.60
2023-02-11T19:45:38.548Z,37.97
2023-02-11T19:48:05.242Z,38.05
2023-02-11T19:50:31.731Z,37.95
2023-02-11T19:52:58.296Z,36.25
2023-02-11T19:55:24.841Z,37.20
2023-02-11T19:57:51.350Z,35.38
2023-02-11T20:00:18.448Z,38.50
2023-02-11T20:02:47.113Z,40.15
2023-02-11T20:05:14.084Z,40.33
2023-02-11T20:07:40.575Z,37.05
2023-02-11T20:10:08.102Z,39.15
2023-02-11T20:12:34.592Z,37.25
2023-02-11T20:15:01.086Z,40.13
2023-02-11T20:17:28.239Z,39.83
2023-02-11T20:19:54.792Z,38.65
2023-02-11T20:22:21.292Z,37.60
2023-02-11T20:24:48.305Z,37.97
2023-02-11T20:27:14.893Z,36.53
2023-02-11T20:29:41.564Z,33.70
2023-02-11T20:32:11.086Z,33.60
2023-02-11T20:34:37.689Z,33.95
2023-02-11T20:37:04.794Z,33.45
2023-02-11T20:39:31.443Z,29.40
2023-02-11T20:42:01.087Z,30.85
2023-02-11T20:44:27.664Z,30.80
2023-02-11T20:46:54.623Z,30.25
2023-02-11T20:49:22.877Z,27.92
2023-02-11T20:51:53.675Z,31.30
2023-02-11T20:54:20.556Z,28.02
2023-02-11T20:56:48.195Z,28.20
2023-02-11T20:59:14.957Z,27.65
2023-02-11T21:01:43.303Z,27.08
2023-02-11T21:04:30.339Z,25.67
2023-02-11T21:06:58.880Z,25.42
2023-02-11T21:09:27.210Z,23.45
2023-02-11T21:11:54.109Z,23.48
2023-02-11T21:14:22.160Z,22.70
2023-02-11T21:16:48.703Z,21.60
2023-02-11T21:19:15.413Z,22.90
2023-02-11T21:21:45.465Z,16.02
2023-02-11T21:24:11.977Z,19.05
2023-02-11T21:26:38.590Z,17.45
2023-02-11T21:29:05.667Z,17.92
2023-02-11T21:31:32.851Z,17.83
2023-02-11T21:33:59.566Z,20.02
2023-02-11T21:36:27.900Z,19.42
2023-02-11T21:38:54.457Z,18.52
2023-02-11T21:41:22.382Z,20.30
2023-02-11T21:43:49.432Z,19.10
2023-02-11T21:46:16.413Z,19.35
2023-02-11T21:48:42.973Z,19.42
2023-02-11T21:51:12.943Z,18.83
2023-02-11T21:53:39.471Z,19.45
2023-02-11T21:56:16.376Z,20.73
2023-02-11T21:58:43.286Z,20.23
2023-02-11T22:01:14.181Z,19.17
2023-02-11T22:03:40.787Z,20.08
2023-02-11T22:06:08.931Z,19.95
2023-02-11T22:08:35.497Z,18.70
2023-02-11T22:11:04.005Z,21.90
2023-02-11T22:13:30.609Z,21.33
2023-02-11T22:15:58.914Z,19.92
2023-02-11T22:18:25.506Z,21.60
2023-02-11T22:21:24.662Z,21.23
2023-02-11T22:23:51.673Z,19.73
2023-02-11T22:26:20.349Z,22.52
2023-02-11T22:28:46.920Z,19.23
2023-02-11T22:31:15.465Z,21.48
2023-02-11T22:33:42.166Z,20.88
2023-02-11T22:36:14.536Z,22.25
2023-02-11T22:38:41.123Z,20.92
2023-02-11T22:41:09.332Z,20.40
2023-02-11T22:43:35.955Z,20.27
2023-02-11T22:46:03.301Z,21.10
2023-02-11T22:48:29.905Z,20.58
2023-02-11T22:50:56.463Z,20.52
2023-02-11T22:53:25.478Z,20.77
2023-02-11T22:55:52.340Z,19.60
2023-02-11T22:58:18.993Z,22.83
2023-02-11T23:00:45.489Z,21.75
2023-02-11T23:03:11.976Z,22.45
2023-02-11T23:05:41.716Z,21.10
2023-02-11T23:08:09.028Z,21.27
2023-02-11T23:10:36.343Z,20.33
2023-02-11T23:13:03.488Z,21.25
2023-02-11T23:15:30.001Z,21.20
2023-02-11T23:17:56.519Z,23.55
2023-02-11T23:20:23.025Z,21.48
2023-02-11T23:22:49.586Z,21.10
2023-02-11T23:25:16.183Z,22.92
2023-02-11T23:27:42.648Z,22.95
2023-02-11T23:30:09.699Z,22.55
2023-02-11T23:32:38.818Z,22.70
2023-02-11T23:35:05.553Z,22.88
2023-02-11T23:37:32.038Z,21.33
2023-02-11T23:39:58.545Z,22.73
2023-02-11T23:42:25.278Z,22.42
2023-02-11T23:44:51.827Z,24.00
2023-02-11T23:47:18.298Z,22.70
2023-02-11T23:49:44.738Z,24.00
2023-02-11T23:52:11.227Z,21.42
2023-02-11T23:54:37.691Z,23.30
2023-02-11T23:57:04.172Z,22.52
2023-02-11T23:59:30.721Z,23.48
